createdAt,value
2023-09-09T00:00:29.993Z,64.00
2023-09-09T00:03:24.400Z,63.80
2023-09-09T00:06:17.218Z,63.30
2023-09-09T00:09:10.442Z,61.70
2023-09-09T00:12:04.108Z,60.60
2023-09-09T00:14:58.869Z,59.90
2023-09-09T00:17:53.995Z,59.70
2023-09-09T00:20:47.842Z,59.50
2023-09-09T00:23:42.045Z,59.20
2023-09-09T00:26:35.568Z,59.00
2023-09-09T00:29:28.511Z,58.80
2023-09-09T00:32:21.407Z,58.60
2023-09-09T00:35:15.648Z,58.50
2023-09-09T00:38:08.771Z,58.40
2023-09-09T00:41:20.054Z,58.40
2023-09-09T00:44:13.383Z,58.30
2023-09-09T00:47:07.285Z,58.30
2023-09-09T00:50:01.329Z,58.30
2023-09-09T00:52:55.997Z,58.20
2023-09-09T00:55:50.269Z,58.20
2023-09-09T00:58:43.449Z,58.10
2023-09-09T01:01:36.546Z,58.20
2023-09-09T01:04:29.426Z,58.10
2023-09-09T01:07:22.626Z,58.10
2023-09-09T01:10:19.501Z,58.00
2023-09-09T01:13:13.211Z,58.00
2023-09-09T01:16:07.555Z,58.00
2023-09-09T01:19:01.065Z,57.90
2023-09-09T01:22:01.752Z,58.00
2023-09-09T01:24:58.944Z,57.90
2023-09-09T01:27:52.145Z,57.90
2023-09-09T01:30:45.285Z,57.80
2023-09-09T01:33:38.600Z,57.80
2023-09-09T01:36:31.362Z,57.80
2023-09-09T01:39:25.571Z,57.80
2023-09-09T01:42:19.866Z,57.80
2023-09-09T01:45:13.310Z,57.70
2023-09-09T01:48:07.788Z,57.60
2023-09-09T01:51:00.625Z,57.60
2023-09-09T01:53:53.668Z,57.60
2023-09-09T01:56:46.500Z,57.60
2023-09-09T01:59:41.245Z,57.50
2023-09-09T02:02:34.952Z,57.40
2023-09-09T02:05:28.712Z,57.40
2023-09-09T02:08:22.484Z,57.30
2023-09-09T02:11:15.622Z,57.30
2023-09-09T02:14:08.820Z,57.30
2023-09-09T02:17:03.593Z,57.30
2023-09-09T02:19:58.400Z,57.20
2023-09-09T02:22:51.644Z,57.20
2023-09-09T02:25:44.656Z,57.10
2023-09-09T02:28:37.827Z,57.10
2023-09-09T02:31:31.255Z,57.10
2023-09-09T02:34:25.835Z,57.10
2023-09-09T02:37:20.150Z,57.10
2023-09-09T02:40:13.636Z,57.10
2023-09-09T02:43:06.290Z,57.10
2023-09-09T02:45:59.528Z,57.20
2023-09-09T02:48:52.718Z,57.20
2023-09-09T02:51:47.098Z,57.30
2023-09-09T02:54:41.700Z,57.30
2023-09-09T02:57:34.782Z,57.30
2023-09-09T03:00:27.812Z,57.30
2023-09-09T03:03:21.501Z,57.30
2023-09-09T03:06:14.866Z,57.30
2023-09-09T03:09:08.842Z,57.30
2023-09-09T03:12:02.537Z,57.30
2023-09-09T03:14:55.682Z,57.30
2023-09-09T03:17:48.503Z,57.20
2023-09-09T03:20:41.831Z,57.20
2023-09-09T03:23:35.269Z,57.20
2023-09-09T03:26:33.016Z,57.20
2023-09-09T03:29:28.368Z,57.20
2023-09-09T03:32:21.547Z,57.20
2023-09-09T03:35:14.730Z,57.20
2023-09-09T03:38:08.539Z,57.20
2023-09-09T03:41:01.651Z,57.00
2023-09-09T03:43:55.961Z,57.00
2023-09-09T03:46:49.797Z,57.00
2023-09-09T03:49:42.801Z,56.90
2023-09-09T03:52:35.786Z,56.90
2023-09-09T03:55:28.808Z,56.90
2023-09-09T03:58:22.101Z,56.80
2023-09-09T04:01:17.151Z,56.80
2023-09-09T04:04:10.622Z,56.80
2023-09-09T04:07:06.175Z,56.80
2023-09-09T04:09:59.526Z,56.80
2023-09-09T04:12:52.776Z,56.80
2023-09-09T04:15:46.318Z,56.80
2023-09-09T04:18:46.849Z,56.80
2023-09-09T04:21:41.165Z,56.80
2023-09-09T04:24:34.904Z,56.80
2023-09-09T04:27:28.751Z,56.80
2023-09-09T04:30:21.457Z,56.80
2023-09-09T04:33:14.875Z,56.80
2023-09-09T04:36:08.988Z,56.80
2023-09-09T04:39:02.916Z,56.70
2023-09-09T04:41:55.761Z,56.70
2023-09-09T04:44:48.609Z,56.80
2023-09-09T04:47:41.915Z,56.70
2023-09-09T04:50:34.708Z,56.70
2023-09-09T04:53:29.437Z,56.70
2023-09-09T04:56:23.172Z,56.70
2023-09-09T04:59:16.711Z,56.60
2023-09-09T05:02:09.669Z,56.60
2023-09-09T05:05:05.225Z,56.60
2023-09-09T05:07:58.938Z,56.60
2023-09-09T05:10:53.352Z,56.50
2023-09-09T05:13:46.661Z,56.60
2023-09-09T05:16:40.172Z,56.60
2023-09-09T05:19:34.103Z,56.50
2023-09-09T05:22:27.709Z,56.60
2023-09-09T05:25:20.478Z,56.60
2023-09-09T05:28:14.885Z,56.60
2023-09-09T05:31:08.652Z,56.60
2023-09-09T05:34:01.921Z,56.60
2023-09-09T05:36:54.618Z,56.70
2023-09-09T05:39:49.828Z,56.70
2023-09-09T05:42:42.978Z,56.80
2023-09-09T05:45:37.078Z,56.80
2023-09-09T05:48:30.924Z,56.80
2023-09-09T05:51:23.508Z,56.90
2023-09-09T05:54:16.988Z,56.80
2023-09-09T05:57:10.037Z,56.90
2023-09-09T06:00:03.285Z,57.00
2023-09-09T06:02:57.927Z,57.00
2023-09-09T06:05:50.676Z,57.00
2023-09-09T06:08:44.196Z,57.00
2023-09-09T06:11:37.993Z,57.10
2023-09-09T06:14:30.906Z,57.10
2023-09-09T06:17:23.759Z,57.10
2023-09-09T06:20:18.374Z,57.10
2023-09-09T06:23:11.986Z,57.10
2023-09-09T06:26:04.906Z,57.20
2023-09-09T06:28:57.957Z,57.30
2023-09-09T06:31:51.785Z,57.30
2023-09-09T06:34:44.708Z,57.40
2023-09-09T06:37:39.269Z,57.40
2023-09-09T06:40:33.887Z,57.50
2023-09-09T06:43:26.881Z,57.50
2023-09-09T06:46:20.242Z,57.50
2023-09-09T06:49:13.792Z,57.60
2023-09-09T06:52:07.864Z,57.70
2023-09-09T06:55:02.153Z,57.80
2023-09-09T06:57:55.945Z,57.80
2023-09-09T07:00:51.679Z,57.90
2023-09-09T07:03:44.763Z,57.90
2023-09-09T07:06:37.695Z,58.00
2023-09-09T07:09:32.228Z,58.00
2023-09-09T07:12:27.768Z,58.10
2023-09-09T07:15:21.357Z,58.20
2023-09-09T07:18:15.007Z,58.30
2023-09-09T07:21:08.631Z,58.40
2023-09-09T07:24:01.707Z,58.40
2023-09-09T07:26:54.805Z,58.60
2023-09-09T07:29:48.997Z,58.60
2023-09-09T07:32:41.789Z,58.70
2023-09-09T07:35:37.323Z,58.60
2023-09-09T07:38:30.708Z,58.70
2023-09-09T07:41:23.955Z,59.50
2023-09-09T07:44:16.859Z,59.70
2023-09-09T07:47:11.553Z,59.50
2023-09-09T07:50:05.779Z,59.90
2023-09-09T07:52:58.797Z,59.80
2023-09-09T07:55:53.038Z,60.10
2023-09-09T07:58:46.065Z,60.10
2023-09-09T08:01:39.082Z,60.10
2023-09-09T08:04:33.723Z,60.20
2023-09-09T08:07:26.840Z,60.30
2023-09-09T08:10:21.671Z,60.30
2023-09-09T08:13:15.023Z,60.60
2023-09-09T08:16:08.118Z,60.70
2023-09-09T08:19:01.493Z,60.40
2023-09-09T08:21:56.318Z,60.20
2023-09-09T08:24:49.881Z,60.20
2023-09-09T08:27:43.069Z,61.00
2023-09-09T08:30:35.929Z,60.60
2023-09-09T08:33:29.649Z,61.00
2023-09-09T08:36:23.159Z,61.10
2023-09-09T08:39:17.874Z,61.20
2023-09-09T08:42:20.965Z,61.50
2023-09-09T08:45:21.721Z,61.60
2023-09-09T08:48:21.454Z,61.90
2023-09-09T08:51:16.417Z,61.80
2023-09-09T08:57:23.789Z,62.10
2023-09-09T09:00:19.325Z,62.30
2023-09-09T09:03:14.025Z,62.40
2023-09-09T09:06:07.784Z,62.50
2023-09-09T09:09:01.213Z,62.60
2023-09-09T09:11:55.572Z,62.60
2023-09-09T09:14:50.324Z,62.60
2023-09-09T09:17:45.510Z,63.50
2023-09-09T09:20:41.512Z,62.90
2023-09-09T09:23:36.261Z,62.80
2023-09-09T09:26:30.822Z,62.90
2023-09-09T09:29:24.044Z,62.90
2023-09-09T09:32:18.536Z,63.00
2023-09-09T09:35:24.402Z,63.00
2023-09-09T09:38:19.127Z,63.90
2023-09-09T09:41:12.260Z,63.10
2023-09-09T09:44:05.539Z,63.30
2023-09-09T09:47:02.778Z,63.40
2023-09-09T09:49:57.421Z,63.40
2023-09-09T09:52:58.848Z,63.40
2023-09-09T09:55:53.083Z,63.80
2023-09-09T09:58:47.598Z,63.80
2023-09-09T10:01:41.497Z,63.60
2023-09-09T10:04:40.263Z,62.60
2023-09-09T10:07:37.928Z,62.90
2023-09-09T10:10:35.508Z,63.20
2023-09-09T10:13:36.928Z,62.60
2023-09-09T10:16:31.543Z,62.50
2023-09-09T10:19:26.224Z,62.60
2023-09-09T10:22:22.171Z,62.60
2023-09-09T10:25:17.416Z,62.80
2023-09-09T10:28:12.650Z,63.00
2023-09-09T10:31:12.506Z,62.90
2023-09-09T10:34:10.251Z,63.00
2023-09-09T10:37:05.148Z,63.30
2023-09-09T10:39:58.499Z,63.60
2023-09-09T10:42:54.871Z,63.30
2023-09-09T10:45:50.464Z,63.10
2023-09-09T10:48:46.549Z,64.00
2023-09-09T10:51:51.442Z,63.30
2023-09-09T10:54:47.628Z,63.60
2023-09-09T10:57:41.660Z,64.30
2023-09-09T11:00:41.539Z,64.40
2023-09-09T11:03:46.836Z,64.60
2023-09-09T11:06:40.789Z,64.40
2023-09-09T11:09:34.618Z,64.20
2023-09-09T11:12:29.257Z,64.10
2023-09-09T11:15:27.300Z,63.90
2023-09-09T11:18:24.229Z,63.80
2023-09-09T11:21:18.133Z,63.70
2023-09-09T11:24:11.818Z,63.60
2023-09-09T11:27:06.940Z,63.60
2023-09-09T11:30:01.973Z,63.50
2023-09-09T11:32:55.569Z,63.40
2023-09-09T11:35:50.405Z,63.30
2023-09-09T11:38:44.730Z,63.40
2023-09-09T11:41:38.083Z,63.40
2023-09-09T11:44:39.199Z,63.20
2023-09-09T11:47:32.777Z,63.20
2023-09-09T11:50:40.251Z,63.20
2023-09-09T11:53:34.812Z,63.30
2023-09-09T11:56:28.358Z,63.40
2023-09-09T11:59:22.600Z,63.70
2023-09-09T12:02:20.518Z,63.80
2023-09-09T12:05:15.979Z,64.50
2023-09-09T12:08:09.191Z,63.60
2023-09-09T12:11:07.903Z,63.60
2023-09-09T12:14:02.247Z,63.50
2023-09-09T12:16:55.294Z,63.40
2023-09-09T12:19:56.337Z,63.30
2023-09-09T12:22:51.188Z,63.40
2023-09-09T12:25:44.022Z,63.40
2023-09-09T12:28:38.516Z,63.30
2023-09-09T12:31:34.132Z,63.30
2023-09-09T12:34:28.640Z,63.30
2023-09-09T12:37:22.109Z,63.20
2023-09-09T12:40:15.006Z,63.20
2023-09-09T12:43:11.679Z,63.20
2023-09-09T12:46:08.898Z,63.20
2023-09-09T12:49:04.695Z,63.20
2023-09-09T12:51:58.244Z,63.10
2023-09-09T12:54:51.223Z,63.20
2023-09-09T12:57:44.221Z,63.10
2023-09-09T13:00:37.309Z,63.20
2023-09-09T13:03:31.785Z,63.10
2023-09-09T13:06:25.341Z,63.10
2023-09-09T13:09:18.635Z,63.20
2023-09-09T13:12:12.362Z,63.50
2023-09-09T13:15:05.966Z,63.40
2023-09-09T13:17:59.550Z,63.40
2023-09-09T13:20:54.416Z,63.20
2023-09-09T13:23:47.137Z,63.00
2023-09-09T13:26:40.277Z,62.90
2023-09-09T13:29:33.298Z,62.70
2023-09-09T13:32:26.674Z,62.70
2023-09-09T13:35:20.189Z,62.70
2023-09-09T13:38:14.418Z,62.70
2023-09-09T13:41:07.571Z,62.60
2023-09-09T13:44:01.172Z,62.50
2023-09-09T13:46:54.171Z,62.50
2023-09-09T13:49:47.015Z,62.40
2023-09-09T13:52:40.299Z,62.30
2023-09-09T13:55:34.761Z,62.30
2023-09-09T13:58:28.055Z,62.30
2023-09-09T14:01:21.160Z,62.30
2023-09-09T14:04:14.722Z,62.40
2023-09-09T14:07:08.380Z,62.30
2023-09-09T14:10:01.320Z,62.30
2023-09-09T14:12:55.610Z,62.40
2023-09-09T14:15:49.750Z,62.40
2023-09-09T14:18:43.498Z,62.50
2023-09-09T14:21:37.609Z,62.40
2023-09-09T14:24:31.818Z,62.50
2023-09-09T14:27:25.384Z,62.60
2023-09-09T14:30:19.575Z,62.60
2023-09-09T14:33:15.629Z,62.50
2023-09-09T14:36:09.059Z,62.60
2023-09-09T14:39:02.508Z,63.00
2023-09-09T14:41:55.245Z,63.00
2023-09-09T14:44:49.891Z,63.20
2023-09-09T14:47:44.345Z,63.40
2023-09-09T14:50:37.502Z,63.60
2023-09-09T14:53:30.640Z,63.80
2023-09-09T14:56:24.136Z,63.80
2023-09-09T14:59:16.909Z,63.90
2023-09-09T15:02:10.367Z,64.00
2023-09-09T15:05:05.337Z,64.30
2023-09-09T15:07:58.570Z,64.50
2023-09-09T15:10:51.425Z,64.50
2023-09-09T15:13:45.040Z,64.60
2023-09-09T15:16:49.062Z,64.60
2023-09-09T15:19:42.216Z,64.70
2023-09-09T15:22:37.559Z,64.90
2023-09-09T15:25:32.084Z,64.80
2023-09-09T15:28:25.190Z,65.00
2023-09-09T15:31:18.416Z,65.00
2023-09-09T15:34:11.433Z,65.20
2023-09-09T15:37:04.622Z,67.10
2023-09-09T15:39:59.586Z,68.50
2023-09-09T15:42:52.272Z,69.80
2023-09-09T15:45:45.303Z,69.80
2023-09-09T15:48:38.744Z,70.90
2023-09-09T15:51:33.124Z,68.60
2023-09-09T15:54:26.261Z,68.70
2023-09-09T15:57:21.254Z,68.00
2023-09-09T16:00:14.426Z,68.20
2023-09-09T16:03:07.860Z,68.00
2023-09-09T16:06:05.777Z,68.30
2023-09-09T16:08:59.532Z,68.50
2023-09-09T16:11:52.817Z,68.60
2023-09-09T16:14:47.586Z,68.30
2023-09-09T16:17:40.969Z,68.40
2023-09-09T16:20:34.898Z,68.40
2023-09-09T16:23:29.015Z,68.50
2023-09-09T16:26:23.073Z,69.00
2023-09-09T16:29:16.232Z,69.20
2023-09-09T16:32:11.395Z,69.40
2023-09-09T16:35:04.665Z,68.70
2023-09-09T16:37:58.761Z,65.90
2023-09-09T16:40:54.458Z,65.20
2023-09-09T16:43:47.180Z,64.70
2023-09-09T16:46:40.539Z,65.50
2023-09-09T16:49:34.639Z,65.00
2023-09-09T16:52:28.591Z,64.60
2023-09-09T16:55:21.383Z,64.80
2023-09-09T16:58:14.481Z,64.80
2023-09-09T17:01:07.088Z,65.10
2023-09-09T17:04:00.578Z,65.20
2023-09-09T17:06:54.528Z,65.20
2023-09-09T17:09:47.221Z,64.60
2023-09-09T17:12:40.523Z,65.40
2023-09-09T17:15:34.019Z,65.40
2023-09-09T17:18:27.620Z,65.20
2023-09-09T17:21:20.429Z,65.50
2023-09-09T17:24:14.696Z,65.60
2023-09-09T17:27:08.842Z,65.20
2023-09-09T17:30:03.576Z,65.10
2023-09-09T17:32:57.352Z,65.50
2023-09-09T17:35:50.520Z,65.20
2023-09-09T17:38:43.542Z,64.90
2023-09-09T17:41:38.932Z,65.00
2023-09-09T17:44:32.488Z,65.30
2023-09-09T17:47:25.651Z,66.20
2023-09-09T17:50:19.783Z,65.80
2023-09-09T17:53:13.795Z,65.90
2023-09-09T17:56:07.486Z,66.20
2023-09-09T17:59:01.829Z,66.10
2023-09-09T18:01:55.727Z,66.10
2023-09-09T18:04:49.328Z,66.10
2023-09-09T18:07:42.719Z,66.10
2023-09-09T18:10:36.548Z,66.00
2023-09-09T18:13:29.662Z,66.10
2023-09-09T18:16:27.020Z,66.00
2023-09-09T18:19:20.764Z,66.00
2023-09-09T18:22:14.739Z,66.00
2023-09-09T18:25:07.620Z,66.00
2023-09-09T18:28:00.172Z,66.10
2023-09-09T18:30:58.199Z,66.00
2023-09-09T18:33:53.086Z,66.10
2023-09-09T18:36:46.603Z,66.10
2023-09-09T18:39:40.558Z,66.10
2023-09-09T18:42:33.360Z,66.00
2023-09-09T18:45:26.554Z,66.00
2023-09-09T18:48:19.537Z,66.10
2023-09-09T18:51:13.649Z,66.00
2023-09-09T18:54:06.705Z,66.00
2023-09-09T18:56:59.335Z,66.10
2023-09-09T18:59:52.476Z,66.00
2023-09-09T19:02:46.334Z,66.00
2023-09-09T19:05:39.921Z,66.00
2023-09-09T19:08:34.888Z,66.00
2023-09-09T19:11:28.411Z,65.90
2023-09-09T19:14:21.692Z,65.70
2023-09-09T19:17:14.491Z,65.70
2023-09-09T19:20:10.913Z,65.80
2023-09-09T19:23:05.968Z,65.60
2023-09-09T19:26:01.298Z,65.60
2023-09-09T19:28:54.511Z,65.60
2023-09-09T19:31:47.841Z,65.50
2023-09-09T19:34:43.465Z,65.40
2023-09-09T19:37:36.885Z,65.30
2023-09-09T19:40:30.403Z,65.30
2023-09-09T19:43:24.811Z,65.30
2023-09-09T19:46:17.322Z,65.30
2023-09-09T19:49:10.696Z,65.30
2023-09-09T19:52:03.826Z,65.30
2023-09-09T19:54:57.431Z,65.30
2023-09-09T19:57:50.456Z,66.10
2023-09-09T20:00:46.618Z,65.20
2023-09-09T20:03:39.648Z,65.20
2023-09-09T20:06:32.391Z,65.20
2023-09-09T20:09:25.146Z,65.20
2023-09-09T20:12:18.439Z,65.20
2023-09-09T20:15:12.017Z,65.10
2023-09-09T20:18:08.217Z,65.10
2023-09-09T20:21:02.444Z,65.10
2023-09-09T20:23:55.608Z,65.10
2023-09-09T20:26:48.830Z,65.10
2023-09-09T20:29:41.848Z,65.10
2023-09-09T20:32:35.984Z,65.00
2023-09-09T20:35:34.657Z,65.00
2023-09-09T20:38:28.451Z,65.00
2023-09-09T20:41:21.510Z,65.00
2023-09-09T20:44:14.330Z,65.00
2023-09-09T20:47:07.610Z,65.00
2023-09-09T20:50:00.938Z,65.00
2023-09-09T20:52:56.648Z,65.00
2023-09-09T20:55:49.359Z,64.90
2023-09-09T20:58:42.927Z,64.90
2023-09-09T21:01:36.967Z,64.80
2023-09-09T21:04:31.051Z,64.90
2023-09-09T21:07:24.725Z,64.80
2023-09-09T21:10:21.708Z,64.80
2023-09-09T21:13:14.363Z,64.80
2023-09-09T21:16:07.668Z,64.80
2023-09-09T21:19:00.533Z,64.80
2023-09-09T21:21:53.806Z,64.80
2023-09-09T21:24:47.359Z,64.80
2023-09-09T21:27:41.855Z,64.70
2023-09-09T21:30:35.063Z,64.70
2023-09-09T21:33:29.092Z,64.70
2023-09-09T21:36:22.438Z,64.70
2023-09-09T21:39:15.802Z,64.60
2023-09-09T21:42:08.471Z,64.60
2023-09-09T21:45:03.511Z,64.60
2023-09-09T21:47:56.573Z,64.60
2023-09-09T21:50:49.745Z,64.60
2023-09-09T21:53:43.378Z,64.50
2023-09-09T21:56:36.645Z,64.40
2023-09-09T21:59:29.466Z,64.50
2023-09-09T22:02:23.895Z,64.50
2023-09-09T22:05:17.144Z,64.50
2023-09-09T22:08:10.520Z,64.40
2023-09-09T22:11:05.324Z,64.40
2023-09-09T22:13:58.531Z,64.40
2023-09-09T22:16:52.647Z,64.30
2023-09-09T22:19:46.887Z,64.30
2023-09-09T22:22:41.297Z,64.30
2023-09-09T22:25:34.798Z,65.00
2023-09-09T22:28:27.805Z,64.20
2023-09-09T22:31:20.861Z,64.20
2023-09-09T22:34:13.963Z,64.10
2023-09-09T22:37:08.747Z,64.10
2023-09-09T22:40:01.867Z,64.10
2023-09-09T22:42:54.400Z,64.10
2023-09-09T22:45:49.186Z,64.10
2023-09-09T22:48:42.702Z,64.50
2023-09-09T22:51:35.874Z,65.20
2023-09-09T22:54:31.653Z,65.30
2023-09-09T22:57:24.372Z,64.20
2023-09-09T23:00:18.069Z,64.00
2023-09-09T23:03:12.309Z,63.80
2023-09-09T23:06:06.396Z,63.60
2023-09-09T23:08:59.622Z,63.50
2023-09-09T23:11:53.908Z,63.40
2023-09-09T23:14:47.856Z,63.20
2023-09-09T23:17:40.713Z,63.20
2023-09-09T23:20:34.626Z,63.10
2023-09-09T23:23:27.632Z,63.00
2023-09-09T23:26:20.667Z,63.00
2023-09-09T23:29:16.598Z,62.90
2023-09-09T23:32:10.256Z,62.80
2023-09-09T23:35:04.125Z,62.80
2023-09-09T23:37:58.624Z,62.80
2023-09-09T23:40:51.890Z,62.70
2023-09-09T23:43:44.796Z,62.70
2023-09-09T23:46:39.037Z,62.60
2023-09-09T23:49:32.686Z,62.50
2023-09-09T23:52:26.051Z,62.50
2023-09-09T23:55:19.570Z,62.40
2023-09-09T23:58:12.821Z,62.30
